sensor_id;sensor_type;location;lat;lon;timestamp;pressure;altitude;pressure_sealevel;temperature;humidity
11172;BME280;5642;50.830;12.082;2023-05-27T00:00:53;100554.78;;;10.99;33.88
11172;BME280;5642;50.830;12.082;2023-05-27T00:03:20;100567.00;;;11.00;33.90
11172;BME280;5642;50.830;12.082;2023-05-27T00:05:46;100550.53;;;10.90;33.85
11172;BME280;5642;50.830;12.082;2023-05-27T00:08:13;100560.06;;;10.94;33.69
11172;BME280;5642;50.830;12.082;2023-05-27T00:10:40;100544.50;;;10.84;33.93
11172;BME280;5642;50.830;12.082;2023-05-27T00:13:09;100552.44;;;10.79;34.08
11172;BME280;5642;50.830;12.082;2023-05-27T00:15:38;100561.97;;;10.83;34.08
11172;BME280;5642;50.830;12.082;2023-05-27T00:18:06;100533.44;;;10.64;34.10
11172;BME280;5642;50.830;12.082;2023-05-27T00:20:32;100537.81;;;10.63;33.93
11172;BME280;5642;50.830;12.082;2023-05-27T00:22:59;100563.03;;;10.72;34.13
11172;BME280;5642;50.830;12.082;2023-05-27T00:25:26;100561.34;;;10.66;34.35
11172;BME280;5642;50.830;12.082;2023-05-27T00:27:54;100562.25;;;10.64;34.12
11172;BME280;5642;50.830;12.082;2023-05-27T00:30:22;100563.16;;;10.63;34.30
11172;BME280;5642;50.830;12.082;2023-05-27T00:32:50;100576.22;;;10.64;34.15
11172;BME280;5642;50.830;12.082;2023-05-27T00:35:18;100569.28;;;10.60;34.31
11172;BME280;5642;50.830;12.082;2023-05-27T00:37:44;100568.50;;;10.55;34.36
11172;BME280;5642;50.830;12.082;2023-05-27T00:40:14;100574.63;;;10.52;34.40
11172;BME280;5642;50.830;12.082;2023-05-27T00:42:41;100579.06;;;10.47;34.60
11172;BME280;5642;50.830;12.082;2023-05-27T00:45:07;100576.44;;;10.46;34.58
11172;BME280;5642;50.830;12.082;2023-05-27T00:47:34;100553.06;;;10.31;34.48
11172;BME280;5642;50.830;12.082;2023-05-27T00:50:02;100576.50;;;10.44;34.61
11172;BME280;5642;50.830;12.082;2023-05-27T00:52:29;100580.88;;;10.42;34.59
11172;BME280;5642;50.830;12.082;2023-05-27T00:54:56;100576.53;;;10.40;34.58
11172;BME280;5642;50.830;12.082;2023-05-27T00:57:23;100559.22;;;10.28;34.54
11172;BME280;5642;50.830;12.082;2023-05-27T00:59:49;100576.63;;;10.34;34.34
11172;BME280;5642;50.830;12.082;2023-05-27T01:02:15;100574.88;;;10.31;34.26
11172;BME280;5642;50.830;12.082;2023-05-27T01:04:43;100578.44;;;10.29;34.77
11172;BME280;5642;50.830;12.082;2023-05-27T01:12:46;100575.94;;;10.15;35.10
11172;BME280;5642;50.830;12.082;2023-05-27T01:15:17;100581.19;;;10.13;34.80
11172;BME280;5642;50.830;12.082;2023-05-27T01:17:45;100555.16;;;10.00;34.94
11172;BME280;5642;50.830;12.082;2023-05-27T01:20:14;100569.91;;;10.08;34.72
11172;BME280;5642;50.830;12.082;2023-05-27T01:22:41;100566.41;;;10.08;34.84
11172;BME280;5642;50.830;12.082;2023-05-27T01:25:09;100569.03;;;10.06;34.69
11172;BME280;5642;50.830;12.082;2023-05-27T01:27:35;100566.44;;;10.03;34.63
11172;BME280;5642;50.830;12.082;2023-05-27T01:30:03;100566.47;;;10.02;35.02
11172;BME280;5642;50.830;12.082;2023-05-27T01:32:49;100567.38;;;9.98;35.05
11172;BME280;5642;50.830;12.082;2023-05-27T01:35:46;100564.84;;;9.92;35.06
11172;BME280;5642;50.830;12.082;2023-05-27T01:38:18;100564.91;;;9.86;34.97
11172;BME280;5642;50.830;12.082;2023-05-27T01:40:46;100567.53;;;9.82;34.96
11172;BME280;5642;50.830;12.082;2023-05-27T01:43:15;100544.94;;;9.77;34.90
11172;BME280;5642;50.830;12.082;2023-05-27T01:45:43;100555.38;;;9.80;35.20
11172;BME280;5642;50.830;12.082;2023-05-27T01:48:10;100523.28;;;9.60;35.02
11172;BME280;5642;50.830;12.082;2023-05-27T01:50:37;100556.34;;;9.71;34.95
11172;BME280;5642;50.830;12.082;2023-05-27T01:53:05;100562.38;;;9.73;35.20
11172;BME280;5642;50.830;12.082;2023-05-27T01:55:32;100547.63;;;9.66;35.11
11172;BME280;5642;50.830;12.082;2023-05-27T01:57:59;100548.50;;;9.68;35.36
11172;BME280;5642;50.830;12.082;2023-05-27T02:00:27;100551.97;;;9.69;35.33
11172;BME280;5642;50.830;12.082;2023-05-27T02:02:53;100555.47;;;9.66;35.33
11172;BME280;5642;50.830;12.082;2023-05-27T02:05:20;100506.91;;;9.39;35.26
11172;BME280;5642;50.830;12.082;2023-05-27T02:07:47;100552.91;;;9.65;35.13
11172;BME280;5642;50.830;12.082;2023-05-27T02:10:14;100525.16;;;9.47;35.29
11172;BME280;5642;50.830;12.082;2023-05-27T02:12:41;100532.13;;;9.51;35.63
11172;BME280;5642;50.830;12.082;2023-05-27T02:15:09;100552.06;;;9.60;35.33
11172;BME280;5642;50.830;12.082;2023-05-27T02:17:35;100540.84;;;9.50;35.52
11172;BME280;5642;50.830;12.082;2023-05-27T02:20:02;100547.75;;;9.56;35.26
11172;BME280;5642;50.830;12.082;2023-05-27T02:22:30;100500.06;;;9.26;35.17
11172;BME280;5642;50.830;12.082;2023-05-27T02:24:56;100538.22;;;9.50;35.48
11172;BME280;5642;50.830;12.082;2023-05-27T02:27:22;100532.19;;;9.42;35.39
11172;BME280;5642;50.830;12.082;2023-05-27T02:29:50;100542.66;;;9.43;35.77
11172;BME280;5642;50.830;12.082;2023-05-27T02:32:16;100543.56;;;9.36;35.80
11172;BME280;5642;50.830;12.082;2023-05-27T02:34:43;100539.22;;;9.37;35.78
11172;BME280;5642;50.830;12.082;2023-05-27T02:37:10;100544.47;;;9.34;35.74
11172;BME280;5642;50.830;12.082;2023-05-27T02:39:39;100527.09;;;9.24;35.35
11172;BME280;5642;50.830;12.082;2023-05-27T02:42:06;100543.66;;;9.27;35.54
11172;BME280;5642;50.830;12.082;2023-05-27T02:44:34;100541.91;;;9.25;35.99
11172;BME280;5642;50.830;12.082;2023-05-27T02:47:01;100530.66;;;9.17;35.83
11172;BME280;5642;50.830;12.082;2023-05-27T02:49:29;100528.06;;;9.14;36.24
11172;BME280;5642;50.830;12.082;2023-05-27T02:51:55;100533.31;;;9.14;35.82
11172;BME280;5642;50.830;12.082;2023-05-27T02:54:23;100533.25;;;9.21;35.87
11172;BME280;5642;50.830;12.082;2023-05-27T02:56:49;100525.47;;;9.14;36.19
11172;BME280;5642;50.830;12.082;2023-05-27T02:59:18;100536.78;;;9.16;36.11
11172;BME280;5642;50.830;12.082;2023-05-27T03:01:44;100514.25;;;8.98;36.22
11172;BME280;5642;50.830;12.082;2023-05-27T03:04:12;100535.91;;;9.15;36.02
11172;BME280;5642;50.830;12.082;2023-05-27T03:06:39;100523.81;;;9.00;36.18
11172;BME280;5642;50.830;12.082;2023-05-27T03:09:07;100556.78;;;9.17;35.74
11172;BME280;5642;50.830;12.082;2023-05-27T03:11:34;100529.94;;;8.96;36.10
11172;BME280;5642;50.830;12.082;2023-05-27T03:14:00;100546.44;;;9.06;36.29
11172;BME280;5642;50.830;12.082;2023-05-27T03:16:27;100536.84;;;9.03;36.12
11172;BME280;5642;50.830;12.082;2023-05-27T03:18:54;100533.41;;;9.01;36.06
11172;BME280;5642;50.830;12.082;2023-05-27T03:21:20;100554.16;;;9.17;35.79
11172;BME280;5642;50.830;12.082;2023-05-27T03:23:47;100548.06;;;9.19;35.90
11172;BME280;5642;50.830;12.082;2023-05-27T03:26:14;100538.47;;;9.18;35.64
11172;BME280;5642;50.830;12.082;2023-05-27T03:28:43;100551.50;;;9.26;35.95
11172;BME280;5642;50.830;12.082;2023-05-27T03:31:09;100553.22;;;9.30;35.84
11172;BME280;5642;50.830;12.082;2023-05-27T03:33:39;100531.50;;;9.22;35.72
11172;BME280;5642;50.830;12.082;2023-05-27T03:36:07;100557.47;;;9.43;35.99
11172;BME280;5642;50.830;12.082;2023-05-27T03:38:37;100544.41;;;9.41;35.81
11172;BME280;5642;50.830;12.082;2023-05-27T03:41:04;100538.28;;;9.42;36.00
11172;BME280;5642;50.830;12.082;2023-05-27T03:43:31;100556.47;;;9.58;35.98
11172;BME280;5642;50.830;12.082;2023-05-27T03:45:58;100552.97;;;9.57;35.62
11172;BME280;5642;50.830;12.082;2023-05-27T03:48:26;100556.41;;;9.64;35.82
11172;BME280;5642;50.830;12.082;2023-05-27T03:50:52;100565.00;;;9.73;35.37
11172;BME280;5642;50.830;12.082;2023-05-27T03:53:19;100565.78;;;9.83;35.58
11172;BME280;5642;50.830;12.082;2023-05-27T03:55:46;100557.84;;;9.92;35.61
11172;BME280;5642;50.830;12.082;2023-05-27T03:58:13;100550.75;;;10.03;35.36
11172;BME280;5642;50.830;12.082;2023-05-27T04:00:40;100552.94;;;10.43;35.10
11172;BME280;5642;50.830;12.082;2023-05-27T04:03:09;100547.31;;;10.70;34.27
11172;BME280;5642;50.830;12.082;2023-05-27T04:05:36;100544.44;;;10.88;34.54
11172;BME280;5642;50.830;12.082;2023-05-27T04:08:04;100559.91;;;11.05;34.67
11172;BME280;5642;50.830;12.082;2023-05-27T04:10:30;100528.47;;;11.02;34.68
11172;BME280;5642;50.830;12.082;2023-05-27T05:15:31;100519.19;;;22.86;28.92
11172;BME280;5642;50.830;12.082;2023-05-27T05:17:57;100516.81;;;23.35;28.71
11172;BME280;5642;50.830;12.082;2023-05-27T05:20:31;100516.28;;;23.83;28.63
11172;BME280;5642;50.830;12.082;2023-05-27T05:22:59;100518.47;;;24.28;28.10
11172;BME280;5642;50.830;12.082;2023-05-27T05:25:27;100514.63;;;24.69;28.34
11172;BME280;5642;50.830;12.082;2023-05-27T05:27:55;100509.91;;;25.09;28.12
11172;BME280;5642;50.830;12.082;2023-05-27T05:30:23;100523.53;;;25.53;27.85
11172;BME280;5642;50.830;12.082;2023-05-27T05:32:50;100491.31;;;25.77;27.47
11172;BME280;5642;50.830;12.082;2023-05-27T05:35:17;100515.81;;;26.30;27.39
11172;BME280;5642;50.830;12.082;2023-05-27T05:37:45;100516.53;;;26.65;27.23
11172;BME280;5642;50.830;12.082;2023-05-27T05:40:15;100522.41;;;26.93;27.15
11172;BME280;5642;50.830;12.082;2023-05-27T05:42:43;100511.72;;;27.13;27.12
11172;BME280;5642;50.830;12.082;2023-05-27T05:45:10;100505.38;;;27.35;27.28
11172;BME280;5642;50.830;12.082;2023-05-27T05:47:39;100507.81;;;27.70;27.02
11172;BME280;5642;50.830;12.082;2023-05-27T05:50:10;100524.28;;;28.18;26.74
11172;BME280;5642;50.830;12.082;2023-05-27T05:52:39;100506.97;;;28.51;27.08
11172;BME280;5642;50.830;12.082;2023-05-27T05:55:08;100510.25;;;28.95;26.29
11172;BME280;5642;50.830;12.082;2023-05-27T05:57:46;100518.59;;;29.41;26.55
11172;BME280;5642;50.830;12.082;2023-05-27T06:00:13;100503.06;;;29.72;26.34
11172;BME280;5642;50.830;12.082;2023-05-27T06:02:40;100515.34;;;30.23;26.07
11172;BME280;5642;50.830;12.082;2023-05-27T06:05:08;100520.81;;;30.78;25.86
11172;BME280;5642;50.830;12.082;2023-05-27T06:07:36;100509.78;;;31.34;25.76
11172;BME280;5642;50.830;12.082;2023-05-27T06:10:04;100478.31;;;31.76;25.64
11172;BME280;5642;50.830;12.082;2023-05-27T06:12:31;100508.63;;;32.49;25.33
11172;BME280;5642;50.830;12.082;2023-05-27T07:13:50;100501.84;;;38.59;22.06
11172;BME280;5642;50.830;12.082;2023-05-27T07:16:18;100493.47;;;38.33;22.56
11172;BME280;5642;50.830;12.082;2023-05-27T07:18:46;100490.19;;;38.16;22.12
11172;BME280;5642;50.830;12.082;2023-05-27T07:21:13;100488.31;;;38.17;22.42
11172;BME280;5642;50.830;12.082;2023-05-27T07:23:42;100481.03;;;38.30;22.32
11172;BME280;5642;50.830;12.082;2023-05-27T07:26:19;100493.50;;;38.39;22.24
11172;BME280;5642;50.830;12.082;2023-05-27T07:28:47;100487.16;;;38.32;22.02
11172;BME280;5642;50.830;12.082;2023-05-27T07:31:14;100492.66;;;38.39;22.07
11172;BME280;5642;50.830;12.082;2023-05-27T07:33:42;100479.66;;;38.48;21.83
11172;BME280;5642;50.830;12.082;2023-05-27T07:36:09;100490.31;;;38.70;21.57
11172;BME280;5642;50.830;12.082;2023-05-27T07:38:36;100493.44;;;38.67;21.53
11172;BME280;5642;50.830;12.082;2023-05-27T07:41:02;100468.81;;;38.67;21.53
11172;BME280;5642;50.830;12.082;2023-05-27T07:43:28;100478.97;;;38.87;21.12
11172;BME280;5642;50.830;12.082;2023-05-27T07:45:54;100485.59;;;39.05;21.16
11172;BME280;5642;50.830;12.082;2023-05-27T07:48:22;100483.19;;;38.89;21.22
11172;BME280;5642;50.830;12.082;2023-05-27T07:50:49;100483.00;;;38.91;21.22
11172;BME280;5642;50.830;12.082;2023-05-27T07:53:18;100478.03;;;39.01;21.14
11172;BME280;5642;50.830;12.082;2023-05-27T07:55:45;100474.00;;;39.10;20.91
11172;BME280;5642;50.830;12.082;2023-05-27T07:58:12;100480.13;;;39.12;20.98
11172;BME280;5642;50.830;12.082;2023-05-27T08:00:38;100482.84;;;38.99;20.93
11172;BME280;5642;50.830;12.082;2023-05-27T08:03:05;100477.59;;;39.04;20.87
11172;BME280;5642;50.830;12.082;2023-05-27T08:05:32;100480.97;;;39.12;21.02
11172;BME280;5642;50.830;12.082;2023-05-27T08:07:59;100468.31;;;39.05;20.77
11172;BME280;5642;50.830;12.082;2023-05-27T08:10:26;100463.06;;;39.10;20.79
11172;BME280;5642;50.830;12.082;2023-05-27T08:12:52;100468.78;;;39.22;20.73
11172;BME280;5642;50.830;12.082;2023-05-27T08:15:18;100454.22;;;39.14;20.48
11172;BME280;5642;50.830;12.082;2023-05-27T08:17:44;100457.00;;;39.41;20.65
11172;BME280;5642;50.830;12.082;2023-05-27T08:20:11;100461.63;;;39.73;20.41
11172;BME280;5642;50.830;12.082;2023-05-27T08:22:38;100450.22;;;39.96;20.23
11172;BME280;5642;50.830;12.082;2023-05-27T08:25:05;100448.72;;;40.26;20.00
11172;BME280;5642;50.830;12.082;2023-05-27T08:30:13;100435.00;;;40.13;20.37
11172;BME280;5642;50.830;12.082;2023-05-27T08:32:41;100431.69;;;39.85;20.44
11172;BME280;5642;50.830;12.082;2023-05-27T08:35:09;100433.59;;;39.84;20.53
11172;BME280;5642;50.830;12.082;2023-05-27T08:37:40;100425.72;;;40.01;20.10
11172;BME280;5642;50.830;12.082;2023-05-27T08:40:12;100430.09;;;40.22;19.80
11172;BME280;5642;50.830;12.082;2023-05-27T08:42:41;100433.50;;;40.17;20.12
11172;BME280;5642;50.830;12.082;2023-05-27T08:45:11;100434.22;;;40.51;20.03
11172;BME280;5642;50.830;12.082;2023-05-27T08:47:38;100417.88;;;40.76;19.90
11172;BME280;5642;50.830;12.082;2023-05-27T08:50:07;100419.59;;;41.01;19.85
11172;BME280;5642;50.830;12.082;2023-05-27T08:52:39;100437.94;;;41.14;19.50
11172;BME280;5642;50.830;12.082;2023-05-27T08:55:09;100421.81;;;40.86;19.83
11172;BME280;5642;50.830;12.082;2023-05-27T08:57:39;100418.75;;;40.70;19.49
11172;BME280;5642;50.830;12.082;2023-05-27T09:00:10;100418.22;;;40.48;19.70
11172;BME280;5642;50.830;12.082;2023-05-27T09:02:41;100387.56;;;39.86;19.77
11172;BME280;5642;50.830;12.082;2023-05-27T09:05:09;100412.81;;;40.08;19.97
11172;BME280;5642;50.830;12.082;2023-05-27T09:07:37;100412.81;;;40.28;19.56
11172;BME280;5642;50.830;12.082;2023-05-27T09:10:05;100394.00;;;40.32;19.96
11172;BME280;5642;50.830;12.082;2023-05-27T09:12:35;100401.81;;;40.35;19.83
11172;BME280;5642;50.830;12.082;2023-05-27T10:16:28;100335.13;;;38.97;20.14
11172;BME280;5642;50.830;12.082;2023-05-27T10:18:58;100331.13;;;39.06;20.00
11172;BME280;5642;50.830;12.082;2023-05-27T10:21:29;100348.81;;;39.04;19.93
11172;BME280;5642;50.830;12.082;2023-05-27T10:23:58;100347.56;;;39.06;19.76
11172;BME280;5642;50.830;12.082;2023-05-27T10:26:59;100352.19;;;38.93;19.74
11172;BME280;5642;50.830;12.082;2023-05-27T10:29:35;100333.53;;;38.49;20.09
11172;BME280;5642;50.830;12.082;2023-05-27T10:32:05;100351.53;;;38.23;20.41
11172;BME280;5642;50.830;12.082;2023-05-27T10:34:35;100339.50;;;38.18;20.44
11172;BME280;5642;50.830;12.082;2023-05-27T10:37:01;100327.09;;;38.15;20.28
11172;BME280;5642;50.830;12.082;2023-05-27T10:39:28;100324.53;;;38.07;20.18
11172;BME280;5642;50.830;12.082;2023-05-27T10:41:55;100320.22;;;37.91;20.37
11172;BME280;5642;50.830;12.082;2023-05-27T10:44:32;100308.31;;;37.65;20.21
11172;BME280;5642;50.830;12.082;2023-05-27T10:49:35;100308.72;;;37.61;20.44
11172;BME280;5642;50.830;12.082;2023-05-27T10:52:12;100319.84;;;37.60;19.91
11172;BME280;5642;50.830;12.082;2023-05-27T10:54:43;100315.91;;;37.41;20.20
11172;BME280;5642;50.830;12.082;2023-05-27T10:57:10;100314.34;;;37.25;20.38
11172;BME280;5642;50.830;12.082;2023-05-27T10:59:50;100315.63;;;37.02;20.08
11172;BME280;5642;50.830;12.082;2023-05-27T11:02:17;100303.13;;;36.93;20.32
11172;BME280;5642;50.830;12.082;2023-05-27T11:04:43;100304.72;;;37.08;20.54
11172;BME280;5642;50.830;12.082;2023-05-27T11:07:09;100300.34;;;36.86;19.91
11172;BME280;5642;50.830;12.082;2023-05-27T11:12:13;100296.03;;;36.56;20.02
11172;BME280;5642;50.830;12.082;2023-05-27T13:15:10;100214.13;;;23.30;21.71
11172;BME280;5642;50.830;12.082;2023-05-27T13:17:36;100206.47;;;23.26;21.64
11172;BME280;5642;50.830;12.082;2023-05-27T13:20:03;100205.59;;;23.25;21.64
11172;BME280;5642;50.830;12.082;2023-05-27T13:22:30;100193.31;;;23.23;21.88
11172;BME280;5642;50.830;12.082;2023-05-27T13:24:56;100200.69;;;23.19;21.98
11172;BME280;5642;50.830;12.082;2023-05-27T13:27:23;100195.25;;;23.21;22.01
11172;BME280;5642;50.830;12.082;2023-05-27T13:29:49;100192.16;;;23.14;22.19
11172;BME280;5642;50.830;12.082;2023-05-27T13:32:15;100182.75;;;23.09;21.92
11172;BME280;5642;50.830;12.082;2023-05-27T13:34:41;100181.38;;;23.16;22.10
11172;BME280;5642;50.830;12.082;2023-05-27T13:37:08;100168.09;;;23.14;22.15
11172;BME280;5642;50.830;12.082;2023-05-27T13:39:34;100174.72;;;23.21;22.01
11172;BME280;5642;50.830;12.082;2023-05-27T13:42:00;100158.03;;;23.18;22.03
11172;BME280;5642;50.830;12.082;2023-05-27T13:44:27;100173.41;;;23.27;22.09
11172;BME280;5642;50.830;12.082;2023-05-27T13:46:53;100162.41;;;23.19;22.03
11172;BME280;5642;50.830;12.082;2023-05-27T13:49:20;100173.88;;;23.21;21.87
11172;BME280;5642;50.830;12.082;2023-05-27T13:51:47;100150.34;;;23.13;22.13
11172;BME280;5642;50.830;12.082;2023-05-27T13:54:14;100160.72;;;23.18;22.12
11172;BME280;5642;50.830;12.082;2023-05-27T13:56:40;100164.47;;;23.15;22.34
11172;BME280;5642;50.830;12.082;2023-05-27T13:59:06;100173.09;;;23.19;22.44
11172;BME280;5642;50.830;12.082;2023-05-27T14:01:35;100150.34;;;23.13;22.39
11172;BME280;5642;50.830;12.082;2023-05-27T14:04:03;100139.25;;;23.07;22.18
11172;BME280;5642;50.830;12.082;2023-05-27T14:06:29;100145.00;;;23.13;22.27
11172;BME280;5642;50.830;12.082;2023-05-27T14:08:56;100148.63;;;23.12;22.43
11172;BME280;5642;50.830;12.082;2023-05-27T14:11:22;100145.75;;;23.15;22.45
11172;BME280;5642;50.830;12.082;2023-05-27T14:13:49;100135.38;;;23.11;22.35
11172;BME280;5642;50.830;12.082;2023-05-27T14:16:16;100116.59;;;22.99;22.39
11172;BME280;5642;50.830;12.082;2023-05-27T14:18:43;100118.53;;;22.97;22.46
11172;BME280;5642;50.830;12.082;2023-05-27T14:21:10;100118.88;;;22.93;22.46
11172;BME280;5642;50.830;12.082;2023-05-27T14:23:36;100132.84;;;22.96;22.36
11172;BME280;5642;50.830;12.082;2023-05-27T14:26:02;100139.47;;;22.91;22.53
11172;BME280;5642;50.830;12.082;2023-05-27T14:28:28;100120.78;;;22.91;22.40
11172;BME280;5642;50.830;12.082;2023-05-27T14:30:54;100111.91;;;22.90;22.40
11172;BME280;5642;50.830;12.082;2023-05-27T14:33:20;100118.88;;;22.93;22.61
11172;BME280;5642;50.830;12.082;2023-05-27T14:35:46;100110.00;;;22.92;22.52
11172;BME280;5642;50.830;12.082;2023-05-27T14:38:15;100103.56;;;22.95;22.60
11172;BME280;5642;50.830;12.082;2023-05-27T14:40:44;100107.72;;;22.99;22.45
11172;BME280;5642;50.830;12.082;2023-05-27T14:43:11;100104.22;;;22.98;22.80
11172;BME280;5642;50.830;12.082;2023-05-27T14:45:41;100097.38;;;22.94;22.66
11172;BME280;5642;50.830;12.082;2023-05-27T14:48:08;100093.97;;;22.92;23.10
11172;BME280;5642;50.830;12.082;2023-05-27T14:50:34;100098.22;;;22.95;22.90
11172;BME280;5642;50.830;12.082;2023-05-27T14:53:00;100097.25;;;22.96;22.80
11172;BME280;5642;50.830;12.082;2023-05-27T14:55:26;100079.09;;;22.88;22.76
11172;BME280;5642;50.830;12.082;2023-05-27T14:57:53;100078.91;;;22.91;22.87
11172;BME280;5642;50.830;12.082;2023-05-27T15:00:19;100097.03;;;22.99;23.04
11172;BME280;5642;50.830;12.082;2023-05-27T15:02:45;100090.00;;;22.98;23.03
11172;BME280;5642;50.830;12.082;2023-05-27T15:05:12;100094.59;;;22.96;22.72
11172;BME280;5642;50.830;12.082;2023-05-27T15:07:39;100079.97;;;22.89;23.04
11172;BME280;5642;50.830;12.082;2023-05-27T15:10:06;100081.47;;;22.93;22.91
11172;BME280;5642;50.830;12.082;2023-05-27T15:12:46;100093.53;;;22.98;22.92
11172;BME280;5642;50.830;12.082;2023-05-27T15:15:14;100081.47;;;22.93;22.86
11172;BME280;5642;50.830;12.082;2023-05-27T16:18:56;100018.78;;;22.48;23.46
11172;BME280;5642;50.830;12.082;2023-05-27T16:21:22;100023.78;;;22.52;23.60
11172;BME280;5642;50.830;12.082;2023-05-27T16:23:48;100021.34;;;22.49;23.42
11172;BME280;5642;50.830;12.082;2023-05-27T16:26:14;100017.81;;;22.49;23.61
11172;BME280;5642;50.830;12.082;2023-05-27T16:28:40;100015.25;;;22.47;23.72
11172;BME280;5642;50.830;12.082;2023-05-27T16:31:09;100009.41;;;22.42;23.63
11172;BME280;5642;50.830;12.082;2023-05-27T16:33:35;100017.81;;;22.49;23.57
11172;BME280;5642;50.830;12.082;2023-05-27T16:36:02;100012.94;;;22.43;23.76
11172;BME280;5642;50.830;12.082;2023-05-27T16:38:27;100009.41;;;22.42;23.90
11172;BME280;5642;50.830;12.082;2023-05-27T16:40:53;100012.06;;;22.42;23.84
11172;BME280;5642;50.830;12.082;2023-05-27T16:43:20;100004.28;;;22.39;23.79
11172;BME280;5642;50.830;12.082;2023-05-27T16:45:46;100007.06;;;22.38;23.70
11172;BME280;5642;50.830;12.082;2023-05-27T16:48:13;100006.31;;;22.36;23.92
11172;BME280;5642;50.830;12.082;2023-05-27T16:50:39;100003.00;;;22.32;23.77
11172;BME280;5642;50.830;12.082;2023-05-27T16:53:07;100003.84;;;22.33;23.83
11172;BME280;5642;50.830;12.082;2023-05-27T16:55:33;100001.53;;;22.28;23.96
11172;BME280;5642;50.830;12.082;2023-05-27T16:57:59;100007.81;;;22.27;23.87
11172;BME280;5642;50.830;12.082;2023-05-27T17:00:26;99998.19;;;22.24;24.11
11172;BME280;5642;50.830;12.082;2023-05-27T17:02:53;99974.97;;;22.01;24.24
11172;BME280;5642;50.830;12.082;2023-05-27T17:05:19;99983.28;;;22.09;24.04
11172;BME280;5642;50.830;12.082;2023-05-27T17:07:47;99980.91;;;22.05;24.21
11172;BME280;5642;50.830;12.082;2023-05-27T17:10:13;99992.53;;;22.04;24.16
11172;BME280;5642;50.830;12.082;2023-05-27T17:12:39;99997.03;;;22.03;24.24
11172;BME280;5642;50.830;12.082;2023-05-27T17:15:05;99990.97;;;22.01;24.13
11172;BME280;5642;50.830;12.082;2023-05-27T17:17:32;99974.91;;;21.88;24.17
11172;BME280;5642;50.830;12.082;2023-05-27T17:19:59;99983.66;;;21.91;24.41
11172;BME280;5642;50.830;12.082;2023-05-27T17:22:26;99982.06;;;21.88;24.31
11172;BME280;5642;50.830;12.082;2023-05-27T17:24:54;99982.19;;;21.86;24.30
11172;BME280;5642;50.830;12.082;2023-05-27T17:27:20;99972.78;;;21.81;24.36
11172;BME280;5642;50.830;12.082;2023-05-27T17:29:47;99970.75;;;21.72;24.52
11172;BME280;5642;50.830;12.082;2023-05-27T17:32:13;99973.50;;;21.70;24.17
11172;BME280;5642;50.830;12.082;2023-05-27T17:34:39;99978.31;;;21.65;24.53
11172;BME280;5642;50.830;12.082;2023-05-27T17:37:06;99979.03;;;21.67;24.67
11172;BME280;5642;50.830;12.082;2023-05-27T17:39:32;99976.69;;;21.63;24.36
11172;BME280;5642;50.830;12.082;2023-05-27T17:41:58;99978.72;;;21.59;24.69
11172;BME280;5642;50.830;12.082;2023-05-27T17:44:25;99981.69;;;21.55;24.53
11172;BME280;5642;50.830;12.082;2023-05-27T17:46:51;99980.31;;;21.49;24.69
11172;BME280;5642;50.830;12.082;2023-05-27T17:49:17;99976.25;;;21.43;24.58
11172;BME280;5642;50.830;12.082;2023-05-27T17:51:44;99968.09;;;21.32;24.81
11172;BME280;5642;50.830;12.082;2023-05-27T17:54:10;99985.78;;;21.33;24.86
11172;BME280;5642;50.830;12.082;2023-05-27T17:56:36;99964.63;;;21.18;24.79
11172;BME280;5642;50.830;12.082;2023-05-27T17:59:02;99976.06;;;21.20;24.70
11172;BME280;5642;50.830;12.082;2023-05-27T18:01:30;99977.13;;;21.17;25.08
11172;BME280;5642;50.830;12.082;2023-05-27T18:03:57;99985.28;;;21.14;25.21
11172;BME280;5642;50.830;12.082;2023-05-27T18:06:23;99981.22;;;21.08;24.96
11172;BME280;5642;50.830;12.082;2023-05-27T18:08:50;99975.53;;;21.00;24.88
11172;BME280;5642;50.830;12.082;2023-05-27T18:11:16;99976.97;;;20.92;25.09
11172;BME280;5642;50.830;12.082;2023-05-27T18:13:42;99979.09;;;20.87;25.32
11172;BME280;5642;50.830;12.082;2023-05-27T18:16:08;99975.88;;;20.82;25.34
11172;BME280;5642;50.830;12.082;2023-05-27T18:18:35;99953.09;;;20.63;25.19
11172;BME280;5642;50.830;12.082;2023-05-27T22:23:17;99960.59;;;12.83;31.33
11172;BME280;5642;50.830;12.082;2023-05-27T22:25:45;99982.25;;;12.91;31.56
11172;BME280;5642;50.830;12.082;2023-05-27T22:28:14;99962.25;;;12.86;31.59
11172;BME280;5642;50.830;12.082;2023-05-27T22:30:41;99977.13;;;12.87;31.60
